• Join FlightAware (Why Join?)
  • Login
  • US Flag 
07:31AM EST


 

Airport Tracker/Info


-or-


 

Live Flight TrackerFlight Track Log ✈ PDT4236 ✈ 17-May-2013 ✈ KCLT - KHTS

Flight Track Log - Related Links

Times and Time Zones

All times are in EDT time to prevent confusion due to time zone crossing. See the PDT4236 flight status page for this flight to view local times or setup timezone preferences in your user account.

Time Position Orientation Groundspeed Altitude Reporting Facility
EDT Latitude Longitude Course Direction KTS MPH feet Rate Location/Type
02:39PM 35.1956 -80.9558 340° North 134 154 1,300  Level Atlanta Center
02:40PM 35.1856 -80.9767 240° Southwest 136 157 2,000 1,080 Climbing Atlanta Center
02:41PM 35.1786 -81.0328 261° West 158 182 3,200 1,140 Climbing Atlanta Center
02:42PM 35.3658 -81.0167 North  Level FlightAware Approximate
02:42PM 35.1903 -81.0856 285° West 163 188 4,500  Level Atlanta Center
02:43PM 35.4332 -81.0428 347° North  Level FlightAware Approximate
02:43PM 35.1997 -81.1336 284° West 166 191 5,700  Level Atlanta Center
02:44PM 35.5023 -81.0626 347° North  Level FlightAware Approximate
02:44PM 35.2114 -81.1789 288° West 166 191 6,700  Level Atlanta Center
02:44PM 35.2222 -81.1989 304° West 177 204 7,300 1,320 Climbing Atlanta Center
02:45PM 35.5660 -81.0978 340° North  Level FlightAware Approximate
02:45PM 35.2642 -81.2103 347° North 181 208 8,300  Level Atlanta Center
02:46PM 35.3119 -81.2033 North 186 214 9,100 780 Climbing Atlanta Center
02:46PM 35.3181 -81.1981 35° Northeast 190 219 9,200 600 Climbing Atlanta Center
02:47PM 35.3578 -81.1917 North 200 230 9,700 720 Climbing Atlanta Center
02:48PM 35.4136 -81.1719 16° North 214 246 10,500 780 Climbing Atlanta Center
02:49PM 35.4694 -81.1522 16° North 214 246 11,300 780 Climbing Atlanta Center
02:50PM 35.5253 -81.1322 16° North 207 238 12,100 780 Climbing Atlanta Center
02:51PM 35.5831 -81.1097 18° North 207 238 12,900 720 Climbing Atlanta Center
02:52PM 35.6419 -81.1306 344° North 207 238 13,600 720 Climbing Atlanta Center
02:53PM 35.6947 -81.1544 340° North 207 238 14,400 660 Climbing Atlanta Center
02:54PM 35.7517 -81.1756 343° North 207 238 15,000 600 Climbing Atlanta Center
02:55PM 35.8064 -81.2017 339° North 212 244 15,700 600 Climbing Atlanta Center
02:56PM 35.8572 -81.2306 335° Northwest 202 232 16,300 600 Climbing Atlanta Center
02:57PM 35.9119 -81.2569 339° North 202 232 16,900 600 Climbing Atlanta Center
02:58PM 35.9606 -81.2836 336° Northwest 197 227 17,600 600 Climbing Atlanta Center
02:59PM 36.0133 -81.3100 338° Northwest 197 227 18,100 420 Climbing Atlanta Center
03:00PM 36.0661 -81.3364 338° Northwest 197 227 18,500 420 Climbing Atlanta Center
03:01PM 36.1189 -81.3631 338° Northwest 197 227 19,000 360 Climbing Atlanta Center
03:02PM 36.1697 -81.4025 328° Northwest 197 227 19,300 360 Climbing Atlanta Center
03:03PM 36.2142 -81.4344 330° Northwest 207 238 19,800 480 Climbing Atlanta Center
03:04PM 36.2650 -81.4714 330° Northwest 207 238 20,300 420 Climbing Atlanta Center
03:05PM 36.3117 -81.5058 329° Northwest 207 238 20,700 360 Climbing Atlanta Center
03:06PM 36.3603 -81.5431 328° Northwest 207 238 21,100 300 Climbing Atlanta Center
03:07PM 36.4031 -81.5883 320° Northwest 202 232 21,400 300 Climbing Atlanta Center
03:08PM 36.4475 -81.6308 322° Northwest 207 238 21,700 300 Climbing Atlanta Center
03:09PM 36.5006 -81.6781 324° Northwest 207 238 22,000 120 Climbing Atlanta Center
03:10PM 36.5536 -81.7206 327° Northwest 218 251 22,000  Level Atlanta Center
03:11PM 36.6167 -81.7444 343° North 223 257 22,000  Level Atlanta Center
03:12PM 36.6797 -81.7764 338° Northwest 235 270 22,000  Level Atlanta Center
03:13PM 36.7469 -81.8056 341° North 240 276 22,000  Level Atlanta Center
03:14PM 36.8119 -81.8297 343° North 245 282 22,000  Level Atlanta Center
03:15PM 36.9231 -81.8617 347° North 248 285 22,000  Level Indianapolis Center
03:17PM 36.9914 -81.8881 343° North 254 292 22,000  Level Indianapolis Center
03:18PM 37.0581 -81.9100 345° North 249 287 22,000  Level Indianapolis Center
03:19PM 37.1253 -81.9333 345° North 250 288 22,000 -240 Level Indianapolis Center
03:20PM 37.1931 -81.9578 344° North 252 290 21,600 -900 Descending Indianapolis Center
03:21PM 37.2814 -81.9928 343° North 280 322 20,200 -1,320 Descending Indianapolis Center
03:22PM 37.3628 -82.0200 345° North 296 341 18,900 -1,080 Descending Indianapolis Center
03:23PM 37.4358 -82.0539 340° North 286 329 18,000 -1,080 Descending Indianapolis Center
03:24PM 37.4964 -82.0836 339° North 242 278 16,700 -1,320 Descending Indianapolis Center
03:25PM 37.5553 -82.1175 335° Northwest 233 268 15,300 -1,500 Descending Indianapolis Center
03:26PM 37.6214 -82.1528 337° Northwest 222 255 13,700 -1,380 Descending Indianapolis Center
03:27PM 37.6800 -82.1850 336° Northwest 228 262 12,500 -780 Descending Indianapolis Center
03:28PM 37.7486 -82.2236 336° Northwest 256 295 12,100 -240 Descending Indianapolis Center
03:29PM 37.8175 -82.2614 337° Northwest 267 307 12,100  Level Indianapolis Center
03:30PM 37.8861 -82.2978 337° Northwest 267 307 12,100  Level Indianapolis Center
03:31PM 37.9619 -82.3386 337° Northwest 257 296 12,100 -240 Level Indianapolis Center
03:32PM 38.0136 -82.3639 339° North 204 235 11,700 -1,800 Descending Indianapolis Center
03:33PM 38.0733 -82.3956 337° Northwest 226 260 8,400 -2,820 Descending Indianapolis Center
03:34PM 38.1383 -82.4319 336° Northwest 264 304 5,900 -2,340 Descending Indianapolis Center
03:35PM 38.2178 -82.4728 338° Northwest 260 299 3,600 -2,280 Descending Indianapolis Center